sensor_id;sensor_type;location;lat;lon;timestamp;temperature;humidity
66740;DHT22;53653;52.188;8.602;2023-07-16T00:00:30;20.46;77.36
66740;DHT22;53653;52.188;8.602;2023-07-16T00:02:57;20.52;77.50
66740;DHT22;53653;52.188;8.602;2023-07-16T00:05:23;20.46;77.66
66740;DHT22;53653;52.188;8.602;2023-07-16T00:07:48;20.47;77.54
66740;DHT22;53653;52.188;8.602;2023-07-16T00:10:14;20.37;78.01
66740;DHT22;53653;52.188;8.602;2023-07-16T00:12:39;20.35;78.28
66740;DHT22;53653;52.188;8.602;2023-07-16T00:15:05;20.40;78.02
66740;DHT22;53653;52.188;8.602;2023-07-16T00:17:32;20.35;78.17
66740;DHT22;53653;52.188;8.602;2023-07-16T00:19:58;20.30;78.33
66740;DHT22;53653;52.188;8.602;2023-07-16T00:22:23;20.22;78.79
66740;DHT22;53653;52.188;8.602;2023-07-16T00:24:48;20.11;79.42
66740;DHT22;53653;52.188;8.602;2023-07-16T00:27:14;20.07;79.42
66740;DHT22;53653;52.188;8.602;2023-07-16T00:29:40;20.09;79.43
66740;DHT22;53653;52.188;8.602;2023-07-16T00:32:05;20.18;79.19
66740;DHT22;53653;52.188;8.602;2023-07-16T00:34:31;20.07;79.63
66740;DHT22;53653;52.188;8.602;2023-07-16T00:36:56;20.18;79.29
66740;DHT22;53653;52.188;8.602;2023-07-16T00:39:28;20.14;79.58
66740;DHT22;53653;52.188;8.602;2023-07-16T00:41:53;20.08;79.63
66740;DHT22;53653;52.188;8.602;2023-07-16T00:44:19;19.94;80.34
66740;DHT22;53653;52.188;8.602;2023-07-16T00:46:44;19.95;80.37
66740;DHT22;53653;52.188;8.602;2023-07-16T00:49:11;19.87;80.74
66740;DHT22;53653;52.188;8.602;2023-07-16T00:51:37;19.78;81.18
66740;DHT22;53653;52.188;8.602;2023-07-16T00:54:03;19.77;81.34
66740;DHT22;53653;52.188;8.602;2023-07-16T00:56:29;19.82;81.20
66740;DHT22;53653;52.188;8.602;2023-07-16T00:58:55;19.88;80.87
66740;DHT22;53653;52.188;8.602;2023-07-16T01:01:20;19.88;80.63
66740;DHT22;53653;52.188;8.602;2023-07-16T01:03:46;19.85;80.56
66740;DHT22;53653;52.188;8.602;2023-07-16T01:06:31;19.78;80.79
66740;DHT22;53653;52.188;8.602;2023-07-16T01:09:14;19.78;80.80
66740;DHT22;53653;52.188;8.602;2023-07-16T01:11:42;19.77;80.77
66740;DHT22;53653;52.188;8.602;2023-07-16T01:14:08;19.77;80.75
66740;DHT22;53653;52.188;8.602;2023-07-16T01:16:33;19.70;80.83
66740;DHT22;53653;52.188;8.602;2023-07-16T01:18:59;19.71;80.79
66740;DHT22;53653;52.188;8.602;2023-07-16T01:21:29;19.78;80.61
66740;DHT22;53653;52.188;8.602;2023-07-16T01:27:09;19.80;80.04
66740;DHT22;53653;52.188;8.602;2023-07-16T01:30:05;19.89;79.52
66740;DHT22;53653;52.188;8.602;2023-07-16T01:32:36;19.82;79.71
66740;DHT22;53653;52.188;8.602;2023-07-16T01:35:03;19.70;80.19
66740;DHT22;53653;52.188;8.602;2023-07-16T01:37:29;19.67;80.32
66740;DHT22;53653;52.188;8.602;2023-07-16T01:39:55;19.66;80.47
66740;DHT22;53653;52.188;8.602;2023-07-16T01:42:21;19.61;80.75
66740;DHT22;53653;52.188;8.602;2023-07-16T01:44:47;19.63;80.53
66740;DHT22;53653;52.188;8.602;2023-07-16T01:47:24;19.67;80.18
66740;DHT22;53653;52.188;8.602;2023-07-16T01:49:55;19.73;79.80
66740;DHT22;53653;52.188;8.602;2023-07-16T01:52:21;19.67;79.96
66740;DHT22;53653;52.188;8.602;2023-07-16T01:54:47;19.59;79.94
66740;DHT22;53653;52.188;8.602;2023-07-16T01:57:13;19.54;79.99
66740;DHT22;53653;52.188;8.602;2023-07-16T01:59:38;19.57;79.72
66740;DHT22;53653;52.188;8.602;2023-07-16T02:02:04;19.53;79.57
66740;DHT22;53653;52.188;8.602;2023-07-16T02:04:29;19.57;79.05
66740;DHT22;53653;52.188;8.602;2023-07-16T02:06:57;19.51;79.28
66740;DHT22;53653;52.188;8.602;2023-07-16T02:09:23;19.53;79.07
66740;DHT22;53653;52.188;8.602;2023-07-16T02:11:48;19.45;79.44
66740;DHT22;53653;52.188;8.602;2023-07-16T02:14:14;19.37;79.50
66740;DHT22;53653;52.188;8.602;2023-07-16T02:16:41;19.29;79.56
66740;DHT22;53653;52.188;8.602;2023-07-16T02:19:06;19.22;79.69
66740;DHT22;53653;52.188;8.602;2023-07-16T02:21:34;19.13;80.12
66740;DHT22;53653;52.188;8.602;2023-07-16T02:23:59;19.10;80.13
66740;DHT22;53653;52.188;8.602;2023-07-16T02:26:25;19.13;79.82
66740;DHT22;53653;52.188;8.602;2023-07-16T02:28:50;19.15;79.78
66740;DHT22;53653;52.188;8.602;2023-07-16T02:31:16;19.09;79.93
66740;DHT22;53653;52.188;8.602;2023-07-16T02:33:41;19.06;80.15
66740;DHT22;53653;52.188;8.602;2023-07-16T02:36:07;19.16;79.83
66740;DHT22;53653;52.188;8.602;2023-07-16T02:38:33;19.24;79.57
66740;DHT22;53653;52.188;8.602;2023-07-16T02:40:58;19.29;79.39
66740;DHT22;53653;52.188;8.602;2023-07-16T02:43:24;19.30;79.51
66740;DHT22;53653;52.188;8.602;2023-07-16T02:45:49;19.15;79.99
66740;DHT22;53653;52.188;8.602;2023-07-16T02:48:15;19.12;79.99
66740;DHT22;53653;52.188;8.602;2023-07-16T02:50:41;19.12;80.01
66740;DHT22;53653;52.188;8.602;2023-07-16T02:53:07;19.10;80.10
66740;DHT22;53653;52.188;8.602;2023-07-16T02:55:34;19.02;80.43
66740;DHT22;53653;52.188;8.602;2023-07-16T02:58:00;18.95;80.82
66740;DHT22;53653;52.188;8.602;2023-07-16T03:00:30;18.89;80.97
66740;DHT22;53653;52.188;8.602;2023-07-16T03:02:56;18.94;80.71
66740;DHT22;53653;52.188;8.602;2023-07-16T03:05:23;18.91;80.92
66740;DHT22;53653;52.188;8.602;2023-07-16T03:07:49;18.88;81.05
66740;DHT22;53653;52.188;8.602;2023-07-16T03:10:16;18.82;81.25
66740;DHT22;53653;52.188;8.602;2023-07-16T03:12:41;18.69;81.79
66740;DHT22;53653;52.188;8.602;2023-07-16T03:15:08;18.71;81.67
66740;DHT22;53653;52.188;8.602;2023-07-16T03:17:33;18.58;82.15
66740;DHT22;53653;52.188;8.602;2023-07-16T03:19:59;18.47;82.66
66740;DHT22;53653;52.188;8.602;2023-07-16T03:22:24;18.45;82.71
66740;DHT22;53653;52.188;8.602;2023-07-16T03:24:50;18.55;82.36
66740;DHT22;53653;52.188;8.602;2023-07-16T03:27:16;18.57;82.38
66740;DHT22;53653;52.188;8.602;2023-07-16T03:29:42;18.60;82.31
66740;DHT22;53653;52.188;8.602;2023-07-16T03:32:10;18.54;82.58
66740;DHT22;53653;52.188;8.602;2023-07-16T03:34:36;18.60;82.37
66740;DHT22;53653;52.188;8.602;2023-07-16T03:37:01;18.55;82.57
66740;DHT22;53653;52.188;8.602;2023-07-16T03:39:30;18.51;82.82
66740;DHT22;53653;52.188;8.602;2023-07-16T03:41:55;18.55;82.64
66740;DHT22;53653;52.188;8.602;2023-07-16T03:44:21;18.58;82.62
66740;DHT22;53653;52.188;8.602;2023-07-16T03:46:46;18.58;82.64
66740;DHT22;53653;52.188;8.602;2023-07-16T03:49:12;18.55;82.87
66740;DHT22;53653;52.188;8.602;2023-07-16T03:51:38;18.47;83.31
66740;DHT22;53653;52.188;8.602;2023-07-16T03:54:03;18.53;83.22
66740;DHT22;53653;52.188;8.602;2023-07-16T03:56:29;18.55;83.11
66740;DHT22;53653;52.188;8.602;2023-07-16T03:58:54;18.51;83.40
66740;DHT22;53653;52.188;8.602;2023-07-16T04:01:21;18.60;83.01
66740;DHT22;53653;52.188;8.602;2023-07-16T04:03:46;18.60;83.00
66740;DHT22;53653;52.188;8.602;2023-07-16T04:06:12;18.51;83.30
66740;DHT22;53653;52.188;8.602;2023-07-16T04:08:38;18.58;83.29
66740;DHT22;53653;52.188;8.602;2023-07-16T04:11:06;18.55;83.55
66740;DHT22;53653;52.188;8.602;2023-07-16T04:13:32;18.61;83.27
66740;DHT22;53653;52.188;8.602;2023-07-16T04:15:58;18.64;83.28
66740;DHT22;53653;52.188;8.602;2023-07-16T04:18:26;18.79;82.73
66740;DHT22;53653;52.188;8.602;2023-07-16T04:20:52;19.23;81.47
66740;DHT22;53653;52.188;8.602;2023-07-16T04:23:18;19.47;80.25
66740;DHT22;53653;52.188;8.602;2023-07-16T04:25:44;19.70;79.44
66740;DHT22;53653;52.188;8.602;2023-07-16T04:28:10;19.53;79.59
66740;DHT22;53653;52.188;8.602;2023-07-16T04:30:36;19.15;80.99
66740;DHT22;53653;52.188;8.602;2023-07-16T04:33:05;18.91;81.80
66740;DHT22;53653;52.188;8.602;2023-07-16T04:35:30;18.95;81.67
66740;DHT22;53653;52.188;8.602;2023-07-16T04:37:56;18.96;81.69
66740;DHT22;53653;52.188;8.602;2023-07-16T04:40:21;19.03;81.56
66740;DHT22;53653;52.188;8.602;2023-07-16T04:42:47;18.99;81.61
66740;DHT22;53653;52.188;8.602;2023-07-16T04:45:12;19.01;81.37
66740;DHT22;53653;52.188;8.602;2023-07-16T04:47:38;18.99;81.54
66740;DHT22;53653;52.188;8.602;2023-07-16T04:50:04;19.03;81.45
66740;DHT22;53653;52.188;8.602;2023-07-16T04:52:30;19.22;80.93
66740;DHT22;53653;52.188;8.602;2023-07-16T04:54:55;19.16;80.66
66740;DHT22;53653;52.188;8.602;2023-07-16T04:57:21;19.12;80.59
66740;DHT22;53653;52.188;8.602;2023-07-16T04:59:46;19.19;80.40
66740;DHT22;53653;52.188;8.602;2023-07-16T05:02:12;19.27;80.12
66740;DHT22;53653;52.188;8.602;2023-07-16T05:04:37;19.34;79.82
66740;DHT22;53653;52.188;8.602;2023-07-16T05:07:03;19.45;79.62
66740;DHT22;53653;52.188;8.602;2023-07-16T05:09:29;19.56;78.93
66740;DHT22;53653;52.188;8.602;2023-07-16T05:11:54;19.68;78.73
66740;DHT22;53653;52.188;8.602;2023-07-16T05:14:20;19.84;78.37
66740;DHT22;53653;52.188;8.602;2023-07-16T05:16:46;19.87;78.03
66740;DHT22;53653;52.188;8.602;2023-07-16T05:19:11;19.88;77.35
66740;DHT22;53653;52.188;8.602;2023-07-16T05:21:36;19.88;77.18
66740;DHT22;53653;52.188;8.602;2023-07-16T05:24:02;19.99;76.86
66740;DHT22;53653;52.188;8.602;2023-07-16T05:26:28;19.87;76.66
66740;DHT22;53653;52.188;8.602;2023-07-16T05:28:53;19.99;76.40
66740;DHT22;53653;52.188;8.602;2023-07-16T05:31:19;20.07;75.58
66740;DHT22;53653;52.188;8.602;2023-07-16T05:33:44;19.95;75.91
66740;DHT22;53653;52.188;8.602;2023-07-16T05:36:09;19.91;75.76
66740;DHT22;53653;52.188;8.602;2023-07-16T05:38:35;20.02;74.96
66740;DHT22;53653;52.188;8.602;2023-07-16T05:41:02;20.08;74.31
66740;DHT22;53653;52.188;8.602;2023-07-16T05:43:28;20.22;73.73
66740;DHT22;53653;52.188;8.602;2023-07-16T05:45:53;20.37;72.57
66740;DHT22;53653;52.188;8.602;2023-07-16T05:48:19;20.52;72.01
66740;DHT22;53653;52.188;8.602;2023-07-16T05:50:44;20.53;71.15
66740;DHT22;53653;52.188;8.602;2023-07-16T05:53:11;20.52;70.04
66740;DHT22;53653;52.188;8.602;2023-07-16T05:55:36;20.53;68.84
66740;DHT22;53653;52.188;8.602;2023-07-16T05:58:02;20.52;68.48
66740;DHT22;53653;52.188;8.602;2023-07-16T06:00:27;20.67;68.40
66740;DHT22;53653;52.188;8.602;2023-07-16T06:02:52;20.66;68.51
66740;DHT22;53653;52.188;8.602;2023-07-16T06:05:18;20.90;67.59
66740;DHT22;53653;52.188;8.602;2023-07-16T06:07:43;20.93;67.50
66740;DHT22;53653;52.188;8.602;2023-07-16T06:10:09;21.15;66.50
66740;DHT22;53653;52.188;8.602;2023-07-16T06:12:34;21.20;65.38
66740;DHT22;53653;52.188;8.602;2023-07-16T06:15:00;20.86;63.81
66740;DHT22;53653;52.188;8.602;2023-07-16T06:17:26;20.81;64.90
66740;DHT22;53653;52.188;8.602;2023-07-16T06:19:51;21.00;64.09
66740;DHT22;53653;52.188;8.602;2023-07-16T06:22:17;21.07;62.55
66740;DHT22;53653;52.188;8.602;2023-07-16T06:24:42;20.97;60.94
66740;DHT22;53653;52.188;8.602;2023-07-16T06:27:08;20.91;61.06
66740;DHT22;53653;52.188;8.602;2023-07-16T06:29:33;21.08;59.99
66740;DHT22;53653;52.188;8.602;2023-07-16T06:31:59;21.12;59.68
66740;DHT22;53653;52.188;8.602;2023-07-16T06:34:25;21.31;59.50
66740;DHT22;53653;52.188;8.602;2023-07-16T06:36:51;21.39;59.12
66740;DHT22;53653;52.188;8.602;2023-07-16T06:39:16;21.20;58.76
66740;DHT22;53653;52.188;8.602;2023-07-16T06:41:42;21.24;59.48
66740;DHT22;53653;52.188;8.602;2023-07-16T06:44:07;21.41;58.52
66740;DHT22;53653;52.188;8.602;2023-07-16T06:46:33;20.72;59.38
66740;DHT22;53653;52.188;8.602;2023-07-16T06:48:58;20.98;59.04
66740;DHT22;53653;52.188;8.602;2023-07-16T06:51:24;21.30;58.24
66740;DHT22;53653;52.188;8.602;2023-07-16T06:53:49;21.35;57.88
66740;DHT22;53653;52.188;8.602;2023-07-16T06:56:15;21.43;57.09
66740;DHT22;53653;52.188;8.602;2023-07-16T06:58:40;21.69;57.28
66740;DHT22;53653;52.188;8.602;2023-07-16T07:01:06;22.01;56.47
66740;DHT22;53653;52.188;8.602;2023-07-16T07:03:32;21.94;55.76
66740;DHT22;53653;52.188;8.602;2023-07-16T07:06:02;21.75;56.35
66740;DHT22;53653;52.188;8.602;2023-07-16T07:08:29;21.66;55.70
66740;DHT22;53653;52.188;8.602;2023-07-16T07:10:55;21.66;55.55
66740;DHT22;53653;52.188;8.602;2023-07-16T07:13:21;21.75;55.52
66740;DHT22;53653;52.188;8.602;2023-07-16T07:15:46;21.75;55.76
66740;DHT22;53653;52.188;8.602;2023-07-16T07:18:12;21.38;56.55
66740;DHT22;53653;52.188;8.602;2023-07-16T07:20:39;21.34;56.46
66740;DHT22;53653;52.188;8.602;2023-07-16T07:23:05;21.08;54.65
66740;DHT22;53653;52.188;8.602;2023-07-16T07:25:31;21.75;54.19
66740;DHT22;53653;52.188;8.602;2023-07-16T07:27:57;22.00;54.01
66740;DHT22;53653;52.188;8.602;2023-07-16T07:30:22;22.22;53.27
66740;DHT22;53653;52.188;8.602;2023-07-16T07:32:48;22.22;53.38
66740;DHT22;53653;52.188;8.602;2023-07-16T07:35:14;22.14;53.50
66740;DHT22;53653;52.188;8.602;2023-07-16T07:37:40;22.25;52.31
66740;DHT22;53653;52.188;8.602;2023-07-16T07:40:06;21.96;53.28
66740;DHT22;53653;52.188;8.602;2023-07-16T07:42:33;21.63;53.71
66740;DHT22;53653;52.188;8.602;2023-07-16T07:44:58;21.48;54.21
66740;DHT22;53653;52.188;8.602;2023-07-16T07:47:24;21.93;53.64
66740;DHT22;53653;52.188;8.602;2023-07-16T07:49:52;21.45;54.13
66740;DHT22;53653;52.188;8.602;2023-07-16T07:52:18;21.80;53.32
66740;DHT22;53653;52.188;8.602;2023-07-16T07:54:44;21.73;53.79
66740;DHT22;53653;52.188;8.602;2023-07-16T07:57:09;21.94;53.27
66740;DHT22;53653;52.188;8.602;2023-07-16T07:59:35;21.55;54.14
66740;DHT22;53653;52.188;8.602;2023-07-16T08:02:00;21.97;53.52
66740;DHT22;53653;52.188;8.602;2023-07-16T08:04:29;21.93;53.77
66740;DHT22;53653;52.188;8.602;2023-07-16T08:06:57;22.07;52.88
66740;DHT22;53653;52.188;8.602;2023-07-16T08:09:23;22.13;52.76
66740;DHT22;53653;52.188;8.602;2023-07-16T08:11:49;21.96;52.41
66740;DHT22;53653;52.188;8.602;2023-07-16T08:14:14;21.78;52.77
66740;DHT22;53653;52.188;8.602;2023-07-16T08:16:40;21.75;52.77
66740;DHT22;53653;52.188;8.602;2023-07-16T08:19:05;21.72;52.40
66740;DHT22;53653;52.188;8.602;2023-07-16T08:21:32;22.28;51.58
66740;DHT22;53653;52.188;8.602;2023-07-16T08:23:58;21.96;52.23
66740;DHT22;53653;52.188;8.602;2023-07-16T08:26:23;21.94;51.38
66740;DHT22;53653;52.188;8.602;2023-07-16T08:28:49;22.07;51.07
66740;DHT22;53653;52.188;8.602;2023-07-16T08:31:15;22.03;51.49
66740;DHT22;53653;52.188;8.602;2023-07-16T08:33:41;21.93;52.37
66740;DHT22;53653;52.188;8.602;2023-07-16T08:36:07;21.85;52.26
66740;DHT22;53653;52.188;8.602;2023-07-16T08:38:32;21.62;51.52
66740;DHT22;53653;52.188;8.602;2023-07-16T08:41:00;21.43;52.20
66740;DHT22;53653;52.188;8.602;2023-07-16T08:43:26;21.45;52.47
66740;DHT22;53653;52.188;8.602;2023-07-16T08:45:52;21.42;52.66
66740;DHT22;53653;52.188;8.602;2023-07-16T08:48:18;21.89;52.53
66740;DHT22;53653;52.188;8.602;2023-07-16T08:50:47;22.62;50.73
66740;DHT22;53653;52.188;8.602;2023-07-16T08:53:15;22.49;50.43
66740;DHT22;53653;52.188;8.602;2023-07-16T08:55:40;22.36;51.41
66740;DHT22;53653;52.188;8.602;2023-07-16T08:58:06;22.18;51.91
66740;DHT22;53653;52.188;8.602;2023-07-16T09:00:33;22.47;51.45
66740;DHT22;53653;52.188;8.602;2023-07-16T09:02:59;23.26;49.16
66740;DHT22;53653;52.188;8.602;2023-07-16T09:05:25;23.39;49.27
66740;DHT22;53653;52.188;8.602;2023-07-16T09:07:51;23.30;49.33
66740;DHT22;53653;52.188;8.602;2023-07-16T09:10:16;23.95;48.86
66740;DHT22;53653;52.188;8.602;2023-07-16T09:12:44;23.61;49.11
66740;DHT22;53653;52.188;8.602;2023-07-16T09:15:17;23.51;49.00
66740;DHT22;53653;52.188;8.602;2023-07-16T09:17:47;23.49;48.75
66740;DHT22;53653;52.188;8.602;2023-07-16T09:20:17;23.37;47.95
66740;DHT22;53653;52.188;8.602;2023-07-16T09:22:44;23.98;48.18
66740;DHT22;53653;52.188;8.602;2023-07-16T09:25:10;23.58;49.18
66740;DHT22;53653;52.188;8.602;2023-07-16T09:27:36;23.39;48.45
66740;DHT22;53653;52.188;8.602;2023-07-16T09:30:03;23.09;48.23
66740;DHT22;53653;52.188;8.602;2023-07-16T09:32:38;23.13;48.61
66740;DHT22;53653;52.188;8.602;2023-07-16T09:35:11;23.40;48.76
66740;DHT22;53653;52.188;8.602;2023-07-16T09:37:37;23.88;47.77
66740;DHT22;53653;52.188;8.602;2023-07-16T09:40:08;24.23;47.23
66740;DHT22;53653;52.188;8.602;2023-07-16T09:42:39;24.60;47.15
66740;DHT22;53653;52.188;8.602;2023-07-16T09:45:06;24.84;46.27
66740;DHT22;53653;52.188;8.602;2023-07-16T09:47:32;24.80;47.08
66740;DHT22;53653;52.188;8.602;2023-07-16T09:49:58;24.64;46.55
66740;DHT22;53653;52.188;8.602;2023-07-16T09:52:26;23.89;46.02
66740;DHT22;53653;52.188;8.602;2023-07-16T09:54:55;24.02;46.02
66740;DHT22;53653;52.188;8.602;2023-07-16T09:57:23;24.33;45.48
66740;DHT22;53653;52.188;8.602;2023-07-16T09:59:51;24.67;44.95
66740;DHT22;53653;52.188;8.602;2023-07-16T10:02:17;24.28;44.89
66740;DHT22;53653;52.188;8.602;2023-07-16T10:04:43;24.46;44.95
66740;DHT22;53653;52.188;8.602;2023-07-16T10:07:23;24.39;45.48
66740;DHT22;53653;52.188;8.602;2023-07-16T10:09:58;24.46;44.57
66740;DHT22;53653;52.188;8.602;2023-07-16T10:12:25;24.35;45.18
66740;DHT22;53653;52.188;8.602;2023-07-16T10:14:53;24.43;45.10
66740;DHT22;53653;52.188;8.602;2023-07-16T10:17:23;24.30;44.52
66740;DHT22;53653;52.188;8.602;2023-07-16T10:20:06;24.61;45.40
66740;DHT22;53653;52.188;8.602;2023-07-16T10:22:46;24.50;44.30
66740;DHT22;53653;52.188;8.602;2023-07-16T10:27:45;24.98;44.00
66740;DHT22;53653;52.188;8.602;2023-07-16T10:30:11;25.04;43.96
66740;DHT22;53653;52.188;8.602;2023-07-16T10:32:37;24.90;44.65
66740;DHT22;53653;52.188;8.602;2023-07-16T10:35:04;24.95;43.05
66740;DHT22;53653;52.188;8.602;2023-07-16T10:37:30;25.04;43.15
66740;DHT22;53653;52.188;8.602;2023-07-16T10:39:58;24.30;44.66
66740;DHT22;53653;52.188;8.602;2023-07-16T10:42:25;24.15;45.15
66740;DHT22;53653;52.188;8.602;2023-07-16T10:44:53;23.88;45.64
66740;DHT22;53653;52.188;8.602;2023-07-16T10:47:23;24.22;45.52
66740;DHT22;53653;52.188;8.602;2023-07-16T10:49:50;24.44;45.13
66740;DHT22;53653;52.188;8.602;2023-07-16T10:52:17;24.39;45.09
66740;DHT22;53653;52.188;8.602;2023-07-16T10:54:43;24.30;45.21
66740;DHT22;53653;52.188;8.602;2023-07-16T10:57:10;24.59;44.67
66740;DHT22;53653;52.188;8.602;2023-07-16T10:59:40;24.77;44.02
66740;DHT22;53653;52.188;8.602;2023-07-16T11:02:11;24.63;43.62
66740;DHT22;53653;52.188;8.602;2023-07-16T11:04:37;24.60;43.70
66740;DHT22;53653;52.188;8.602;2023-07-16T11:07:09;25.10;43.22
66740;DHT22;53653;52.188;8.602;2023-07-16T11:09:49;25.27;43.05
66740;DHT22;53653;52.188;8.602;2023-07-16T11:12:17;25.55;42.97
66740;DHT22;53653;52.188;8.602;2023-07-16T11:14:45;25.43;42.47
66740;DHT22;53653;52.188;8.602;2023-07-16T11:17:12;25.42;42.63
66740;DHT22;53653;52.188;8.602;2023-07-16T11:19:38;25.14;42.65
66740;DHT22;53653;52.188;8.602;2023-07-16T11:22:07;24.98;43.22
66740;DHT22;53653;52.188;8.602;2023-07-16T11:24:44;25.24;42.97
66740;DHT22;53653;52.188;8.602;2023-07-16T11:27:15;24.97;42.59
66740;DHT22;53653;52.188;8.602;2023-07-16T11:29:51;24.80;43.53
66740;DHT22;53653;52.188;8.602;2023-07-16T11:35:00;24.76;43.88
66740;DHT22;53653;52.188;8.602;2023-07-16T11:37:27;24.90;44.50
66740;DHT22;53653;52.188;8.602;2023-07-16T11:40:01;24.92;44.07
66740;DHT22;53653;52.188;8.602;2023-07-16T11:44:56;25.00;42.74
66740;DHT22;53653;52.188;8.602;2023-07-16T11:47:22;25.17;42.33
66740;DHT22;53653;52.188;8.602;2023-07-16T11:49:48;25.39;41.96
66740;DHT22;53653;52.188;8.602;2023-07-16T11:52:14;25.65;41.36
66740;DHT22;53653;52.188;8.602;2023-07-16T11:54:39;26.12;41.53
66740;DHT22;53653;52.188;8.602;2023-07-16T11:57:06;26.16;40.82
66740;DHT22;53653;52.188;8.602;2023-07-16T11:59:31;26.16;40.85
66740;DHT22;53653;52.188;8.602;2023-07-16T12:01:57;25.52;41.70
66740;DHT22;53653;52.188;8.602;2023-07-16T12:04:23;25.45;41.74
66740;DHT22;53653;52.188;8.602;2023-07-16T12:06:48;25.68;42.16
66740;DHT22;53653;52.188;8.602;2023-07-16T12:09:14;25.58;41.93
66740;DHT22;53653;52.188;8.602;2023-07-16T12:11:39;25.35;42.10
66740;DHT22;53653;52.188;8.602;2023-07-16T12:14:06;25.62;42.25
66740;DHT22;53653;52.188;8.602;2023-07-16T12:16:31;25.66;42.19
66740;DHT22;53653;52.188;8.602;2023-07-16T12:18:57;26.17;41.74
66740;DHT22;53653;52.188;8.602;2023-07-16T12:21:22;26.00;40.58
66740;DHT22;53653;52.188;8.602;2023-07-16T12:23:48;25.79;41.34
66740;DHT22;53653;52.188;8.602;2023-07-16T12:26:13;25.61;41.44
66740;DHT22;53653;52.188;8.602;2023-07-16T12:28:39;25.69;41.24
66740;DHT22;53653;52.188;8.602;2023-07-16T12:31:05;25.42;41.66
66740;DHT22;53653;52.188;8.602;2023-07-16T12:33:30;25.27;41.89
66740;DHT22;53653;52.188;8.602;2023-07-16T12:35:56;25.27;41.71
66740;DHT22;53653;52.188;8.602;2023-07-16T12:38:21;25.21;43.26
66740;DHT22;53653;52.188;8.602;2023-07-16T12:40:48;25.87;42.68
66740;DHT22;53653;52.188;8.602;2023-07-16T12:43:13;26.27;41.77
66740;DHT22;53653;52.188;8.602;2023-07-16T12:45:39;26.43;41.15
66740;DHT22;53653;52.188;8.602;2023-07-16T12:48:04;26.52;40.64
66740;DHT22;53653;52.188;8.602;2023-07-16T12:50:30;26.51;40.52
66740;DHT22;53653;52.188;8.602;2023-07-16T12:52:55;26.37;40.44
66740;DHT22;53653;52.188;8.602;2023-07-16T12:55:21;26.31;41.15
66740;DHT22;53653;52.188;8.602;2023-07-16T12:57:46;25.94;41.38
66740;DHT22;53653;52.188;8.602;2023-07-16T13:00:12;26.37;41.19
66740;DHT22;53653;52.188;8.602;2023-07-16T13:02:38;26.27;40.82
66740;DHT22;53653;52.188;8.602;2023-07-16T13:05:04;25.65;41.95
66740;DHT22;53653;52.188;8.602;2023-07-16T13:07:33;25.65;41.82
66740;DHT22;53653;52.188;8.602;2023-07-16T13:09:58;25.65;42.20
66740;DHT22;53653;52.188;8.602;2023-07-16T13:12:24;25.72;41.85
66740;DHT22;53653;52.188;8.602;2023-07-16T13:14:49;25.62;42.01
66740;DHT22;53653;52.188;8.602;2023-07-16T13:17:15;25.82;41.32
66740;DHT22;53653;52.188;8.602;2023-07-16T13:19:41;26.01;41.18
66740;DHT22;53653;52.188;8.602;2023-07-16T13:22:07;25.69;41.85
66740;DHT22;53653;52.188;8.602;2023-07-16T13:24:32;25.65;42.42
66740;DHT22;53653;52.188;8.602;2023-07-16T13:26:58;25.83;41.60
66740;DHT22;53653;52.188;8.602;2023-07-16T13:29:23;25.87;42.20
66740;DHT22;53653;52.188;8.602;2023-07-16T13:31:49;26.17;41.59
66740;DHT22;53653;52.188;8.602;2023-07-16T13:34:14;25.72;42.05
66740;DHT22;53653;52.188;8.602;2023-07-16T13:36:39;25.49;42.72
66740;DHT22;53653;52.188;8.602;2023-07-16T13:39:05;25.41;43.34
66740;DHT22;53653;52.188;8.602;2023-07-16T13:41:31;25.61;43.13
66740;DHT22;53653;52.188;8.602;2023-07-16T13:43:57;25.58;42.42
66740;DHT22;53653;52.188;8.602;2023-07-16T13:46:22;25.39;42.82
66740;DHT22;53653;52.188;8.602;2023-07-16T13:48:48;25.28;42.68
66740;DHT22;53653;52.188;8.602;2023-07-16T13:51:14;25.28;42.96
66740;DHT22;53653;52.188;8.602;2023-07-16T13:53:39;25.34;42.76
66740;DHT22;53653;52.188;8.602;2023-07-16T13:56:06;25.27;42.78
66740;DHT22;53653;52.188;8.602;2023-07-16T13:58:33;25.35;43.28
66740;DHT22;53653;52.188;8.602;2023-07-16T14:00:58;25.50;43.64
66740;DHT22;53653;52.188;8.602;2023-07-16T14:03:24;25.48;42.48
66740;DHT22;53653;52.188;8.602;2023-07-16T14:05:49;25.22;43.30
66740;DHT22;53653;52.188;8.602;2023-07-16T14:08:15;25.04;43.33
66740;DHT22;53653;52.188;8.602;2023-07-16T14:10:40;24.97;43.81
66740;DHT22;53653;52.188;8.602;2023-07-16T14:13:06;25.01;43.45
66740;DHT22;53653;52.188;8.602;2023-07-16T14:15:31;25.14;43.02
66740;DHT22;53653;52.188;8.602;2023-07-16T14:17:57;25.15;42.75
66740;DHT22;53653;52.188;8.602;2023-07-16T14:20:22;25.31;43.60
66740;DHT22;53653;52.188;8.602;2023-07-16T14:22:48;25.53;43.66
66740;DHT22;53653;52.188;8.602;2023-07-16T14:25:14;25.34;42.95
66740;DHT22;53653;52.188;8.602;2023-07-16T14:27:39;25.12;43.48
66740;DHT22;53653;52.188;8.602;2023-07-16T14:30:05;25.12;43.26
66740;DHT22;53653;52.188;8.602;2023-07-16T14:32:33;25.06;43.59
66740;DHT22;53653;52.188;8.602;2023-07-16T14:34:59;25.17;43.39
66740;DHT22;53653;52.188;8.602;2023-07-16T14:37:25;25.18;43.45
66740;DHT22;53653;52.188;8.602;2023-07-16T14:39:51;25.01;43.93
66740;DHT22;53653;52.188;8.602;2023-07-16T14:42:16;25.06;43.77
66740;DHT22;53653;52.188;8.602;2023-07-16T14:44:42;25.01;43.02
66740;DHT22;53653;52.188;8.602;2023-07-16T14:47:08;24.91;43.49
66740;DHT22;53653;52.188;8.602;2023-07-16T14:49:34;25.07;43.86
66740;DHT22;53653;52.188;8.602;2023-07-16T14:52:00;25.21;43.67
66740;DHT22;53653;52.188;8.602;2023-07-16T14:54:26;25.28;43.13
66740;DHT22;53653;52.188;8.602;2023-07-16T14:56:51;25.27;43.04
66740;DHT22;53653;52.188;8.602;2023-07-16T14:59:17;25.07;43.75
66740;DHT22;53653;52.188;8.602;2023-07-16T15:01:43;25.04;43.51
66740;DHT22;53653;52.188;8.602;2023-07-16T15:04:08;25.15;43.89
66740;DHT22;53653;52.188;8.602;2023-07-16T15:06:34;25.18;43.16
66740;DHT22;53653;52.188;8.602;2023-07-16T15:08:59;25.15;43.61
66740;DHT22;53653;52.188;8.602;2023-07-16T15:11:25;25.12;43.48
66740;DHT22;53653;52.188;8.602;2023-07-16T15:13:51;25.10;43.55
66740;DHT22;53653;52.188;8.602;2023-07-16T15:16:16;24.90;43.87
66740;DHT22;53653;52.188;8.602;2023-07-16T15:18:42;24.98;43.76
66740;DHT22;53653;52.188;8.602;2023-07-16T15:21:08;25.10;44.30
66740;DHT22;53653;52.188;8.602;2023-07-16T15:23:33;25.27;43.51
66740;DHT22;53653;52.188;8.602;2023-07-16T15:26:04;25.19;43.47
66740;DHT22;53653;52.188;8.602;2023-07-16T15:28:31;25.31;43.59
66740;DHT22;53653;52.188;8.602;2023-07-16T15:31:00;25.27;43.39
66740;DHT22;53653;52.188;8.602;2023-07-16T15:33:26;25.14;43.52
66740;DHT22;53653;52.188;8.602;2023-07-16T15:35:51;25.22;44.13